Time;durP1;ratioP1;P1;durP2;ratioP2;P2;SDS_P1;SDS_P2;PMS_P1;PMS_P2;Temp;Humidity;BMP_temperature;BMP_pressure;BME280_temperature;BME280_humidity;BME280_pressure;Samples;Min_cycle;Max_cycle;Signal;HPM_P1;HPM_P2
2022/10/29 00:01:44;;;;;;;30.23;7.00;;;11.40;99.90;;;;;;5029798;28;20116;-71
2022/10/29 00:04:10;;;;;;;31.83;6.40;;;11.50;99.90;;;;;;5024413;28;20048;-70
2022/10/29 00:06:36;;;;;;;24.43;6.47;;;11.40;99.90;;;;;;5020440;28;20041;-70
2022/10/29 00:09:03;;;;;;;35.53;7.00;;;11.40;99.90;;;;;;5028870;28;20493;-71
2022/10/29 00:11:29;;;;;;;31.50;7.63;;;11.40;99.90;;;;;;5046804;28;20330;-71
2022/10/29 00:13:59;;;;;;;29.57;6.87;;;11.40;99.90;;;;;;5030293;28;20323;-70
2022/10/29 00:16:27;;;;;;;36.17;7.43;;;11.40;99.90;;;;;;5023987;28;20305;-70
2022/10/29 00:18:54;;;;;;;23.80;6.83;;;11.40;99.90;;;;;;5039536;28;20300;-70
2022/10/29 00:21:22;;;;;;;32.53;7.37;;;11.50;99.90;;;;;;5023990;28;20287;-70
2022/10/29 00:23:49;;;;;;;30.13;6.90;;;11.40;99.90;;;;;;5030144;28;20291;-71
2022/10/29 00:26:16;;;;;;;31.57;7.23;;;11.40;99.90;;;;;;5046942;28;20642;-70
2022/10/29 00:28:42;;;;;;;28.77;6.93;;;11.40;99.90;;;;;;5009961;28;20373;-70
2022/10/29 00:31:15;;;;;;;37.27;7.10;;;11.40;99.90;;;;;;5029595;28;20303;-70
2022/10/29 00:33:41;;;;;;;33.03;7.43;;;11.40;99.90;;;;;;5027289;28;20288;-70
2022/10/29 00:36:10;;;;;;;35.57;7.87;;;11.40;99.90;;;;;;5020412;28;20516;-71
2022/10/29 00:38:36;;;;;;;24.27;7.27;;;11.50;99.90;;;;;;5026770;28;20330;-70
2022/10/29 00:41:04;;;;;;;40.77;7.97;;;11.50;99.90;;;;;;5041513;28;20288;-70
2022/10/29 00:43:33;;;;;;;51.07;9.43;;;11.60;99.90;;;;;;5018916;28;20041;-70
2022/10/29 00:46:11;;;;;;;39.27;8.47;;;11.60;99.90;;;;;;5023243;28;20616;-71
2022/10/29 00:48:44;;;;;;;50.27;10.07;;;11.70;99.90;;;;;;5046453;28;20303;-70
2022/10/29 00:51:12;;;;;;;31.87;8.07;;;11.70;99.90;;;;;;5041188;28;20334;-70
2022/10/29 00:53:57;;;;;;;90.87;11.30;;;11.80;99.90;;;;;;5012295;28;20353;-70
2022/10/29 00:56:24;;;;;;;25.80;7.10;;;11.80;99.90;;;;;;5024182;28;20279;-71
2022/10/29 00:58:50;;;;;;;33.93;7.80;;;11.90;99.90;;;;;;5016995;28;20395;-71
2022/10/29 01:01:16;;;;;;;39.17;7.43;;;11.90;99.90;;;;;;5024835;28;20287;-71
2022/10/29 01:03:42;;;;;;;62.57;8.83;;;11.90;99.90;;;;;;5032759;28;20280;-70
2022/10/29 01:06:08;;;;;;;29.13;6.80;;;11.90;99.90;;;;;;5003999;28;20057;-70
2022/10/29 01:08:33;;;;;;;30.67;6.70;;;11.90;99.90;;;;;;5042950;28;20044;-71
2022/10/29 01:11:14;;;;;;;23.83;5.50;;;11.90;99.90;;;;;;5024598;28;20045;-70
2022/10/29 01:13:46;;;;;;;40.00;6.67;;;12.00;99.90;;;;;;5021349;28;20417;-70
2022/10/29 01:16:37;;;;;;;34.97;6.57;;;12.00;99.90;;;;;;5040700;28;20771;-70
2022/10/29 01:19:40;;;;;;;41.83;8.40;;;12.00;99.90;;;;;;5024537;28;20810;-71
2022/10/29 01:22:20;;;;;;;29.43;5.10;;;12.00;99.90;;;;;;5040201;28;20280;-70
2022/10/29 01:24:48;;;;;;;22.03;5.30;;;11.90;99.90;;;;;;5029137;28;20294;-71
2022/10/29 01:27:38;;;;;;;32.70;6.33;;;12.00;99.90;;;;;;5018974;28;20640;-71
2022/10/29 01:30:28;;;;;;;14.40;4.90;;;12.00;99.90;;;;;;5040104;28;20311;-71
2022/10/29 01:33:07;;;;;;;25.23;5.57;;;12.00;99.90;;;;;;5041907;28;20288;-70
2022/10/29 01:35:39;;;;;;;32.10;6.83;;;12.00;99.90;;;;;;5022622;28;20785;-71
2022/10/29 01:38:11;;;;;;;28.83;6.30;;;12.00;99.90;;;;;;5023576;28;20291;-71
2022/10/29 01:40:54;;;;;;;20.90;4.90;;;12.00;99.90;;;;;;5037750;28;20328;-71
2022/10/29 01:43:35;;;;;;;15.13;5.27;;;12.00;99.90;;;;;;5039877;28;20283;-71
2022/10/29 01:46:05;;;;;;;12.00;5.10;;;12.00;99.90;;;;;;5043036;28;20306;-70
2022/10/29 01:48:34;;;;;;;23.37;5.83;;;12.00;99.90;;;;;;5040025;28;20755;-71
2022/10/29 01:51:06;;;;;;;37.50;6.97;;;12.00;99.90;;;;;;5017449;28;20303;-71
2022/10/29 01:53:35;;;;;;;33.97;6.17;;;12.00;99.90;;;;;;5026864;28;20382;-71
2022/10/29 01:56:00;;;;;;;20.13;5.50;;;12.00;99.90;;;;;;5025955;28;20284;-71
2022/10/29 01:58:26;;;;;;;21.27;5.63;;;12.00;99.90;;;;;;5023899;28;20303;-70
2022/10/29 02:00:58;;;;;;;8.80;5.10;;;12.00;99.90;;;;;;5025417;28;20469;-71
2022/10/29 02:03:41;;;;;;;27.77;5.90;;;11.90;99.90;;;;;;5016901;28;20249;-71
2022/10/29 02:06:14;;;;;;;78.80;9.27;;;12.00;99.90;;;;;;5039478;28;20283;-71
2022/10/29 02:08:54;;;;;;;47.53;7.80;;;12.00;99.90;;;;;;5043235;28;20291;-71
2022/10/29 02:11:29;;;;;;;24.43;6.77;;;12.00;99.90;;;;;;5021981;28;20371;-71
2022/10/29 02:14:03;;;;;;;26.23;6.22;;;12.00;99.90;;;;;;5044314;28;20299;-71
2022/10/29 02:16:30;;;;;;;114.97;13.00;;;12.00;99.90;;;;;;5043755;28;20049;-71
2022/10/29 02:18:56;;;;;;;177.83;16.00;;;12.00;99.90;;;;;;5044079;28;20307;-71
2022/10/29 02:21:23;;;;;;;102.10;12.57;;;12.00;99.90;;;;;;4995584;28;20297;-71
2022/10/29 02:23:49;;;;;;;48.50;6.27;;;12.10;99.90;;;;;;5041942;28;20284;-71
2022/10/29 02:26:15;;;;;;;94.33;10.13;;;12.10;99.90;;;;;;5011222;28;20443;-71
2022/10/29 02:28:41;;;;;;;34.60;6.27;;;12.10;99.90;;;;;;5009981;28;20338;-71
2022/10/29 02:31:07;;;;;;;82.10;10.43;;;12.10;99.90;;;;;;5019719;28;20338;-71
2022/10/29 02:33:33;;;;;;;18.13;4.97;;;12.10;99.90;;;;;;5024076;28;20630;-71
2022/10/29 02:35:59;;;;;;;86.30;10.87;;;12.10;99.90;;;;;;5024349;28;20504;-71
2022/10/29 02:38:24;;;;;;;37.80;7.27;;;12.10;99.90;;;;;;5041488;28;20533;-71
2022/10/29 02:40:50;;;;;;;38.53;6.37;;;12.10;99.90;;;;;;5033549;28;20041;-71
2022/10/29 02:43:16;;;;;;;46.67;6.90;;;12.10;99.90;;;;;;5015083;28;20524;-71
2022/10/29 02:45:42;;;;;;;18.37;4.37;;;12.10;99.90;;;;;;5009041;28;20488;-71
2022/10/29 02:48:07;;;;;;;57.57;8.30;;;12.10;99.90;;;;;;5027280;28;20034;-71
2022/10/29 02:50:33;;;;;;;112.47;11.17;;;12.10;99.90;;;;;;5043485;28;20049;-71
2022/10/29 02:52:59;;;;;;;22.20;4.30;;;12.10;99.90;;;;;;5007963;28;20036;-71
2022/10/29 02:55:24;;;;;;;19.90;5.60;;;12.10;99.90;;;;;;5038814;28;20123;-71
2022/10/29 02:57:50;;;;;;;26.73;4.70;;;12.10;99.90;;;;;;5036450;28;20033;-71
2022/10/29 03:00:16;;;;;;;24.17;5.97;;;12.00;99.90;;;;;;5007483;28;20041;-71
2022/10/29 03:02:42;;;;;;;23.50;4.63;;;12.00;99.90;;;;;;5018880;28;20049;-71
2022/10/29 03:05:08;;;;;;;14.10;3.93;;;12.00;99.90;;;;;;5002903;28;20271;-71
2022/10/29 03:07:38;;;;;;;17.87;4.20;;;12.00;99.90;;;;;;5010985;28;20264;-71
2022/10/29 03:10:05;;;;;;;38.17;6.37;;;12.00;99.90;;;;;;5037564;28;20357;-71
2022/10/29 03:12:31;;;;;;;31.83;6.60;;;11.90;99.90;;;;;;5024690;28;20306;-71
2022/10/29 03:14:56;;;;;;;85.80;9.80;;;11.90;99.90;;;;;;5025219;28;20508;-71
2022/10/29 03:17:22;;;;;;;33.77;4.80;;;11.90;99.90;;;;;;5017847;28;20132;-71
2022/10/29 03:19:48;;;;;;;59.90;7.03;;;11.90;99.90;;;;;;5019667;28;20457;-71
2022/10/29 03:22:13;;;;;;;45.43;6.70;;;11.90;99.90;;;;;;5040872;28;20098;-71
2022/10/29 03:24:39;;;;;;;24.10;5.20;;;11.90;99.90;;;;;;5042039;28;20124;-71
2022/10/29 03:27:05;;;;;;;27.50;5.40;;;11.90;99.90;;;;;;5009675;28;20037;-71
2022/10/29 03:29:31;;;;;;;76.77;8.83;;;11.90;99.90;;;;;;5007854;28;20136;-71
2022/10/29 03:31:56;;;;;;;74.67;6.97;;;12.00;99.90;;;;;;5040516;28;20062;-71
2022/10/29 03:34:22;;;;;;;56.27;8.60;;;12.00;99.90;;;;;;5010801;28;20055;-71
2022/10/29 03:36:48;;;;;;;27.10;6.73;;;12.00;99.90;;;;;;5023475;28;20090;-71
2022/10/29 03:39:13;;;;;;;30.27;6.13;;;12.00;99.90;;;;;;5007627;28;20047;-71
2022/10/29 03:41:39;;;;;;;84.17;10.50;;;12.00;99.90;;;;;;5021309;28;20080;-71
2022/10/29 03:44:05;;;;;;;90.73;10.70;;;12.10;99.90;;;;;;5022700;28;20043;-71
2022/10/29 03:46:31;;;;;;;53.53;7.77;;;12.10;99.90;;;;;;5025082;28;20125;-71
2022/10/29 03:48:57;;;;;;;29.40;6.50;;;12.10;99.90;;;;;;5037958;28;20049;-71
2022/10/29 03:51:22;;;;;;;28.03;5.60;;;12.10;99.90;;;;;;5002974;28;20419;-71
2022/10/29 03:53:48;;;;;;;42.03;6.50;;;12.10;99.90;;;;;;5005154;28;20631;-71
2022/10/29 03:56:14;;;;;;;48.83;8.33;;;12.10;99.90;;;;;;5023769;28;20049;-71
2022/10/29 03:58:40;;;;;;;42.77;8.07;;;12.10;99.90;;;;;;5036308;28;20084;-71
2022/10/29 04:01:07;;;;;;;34.43;7.53;;;12.10;99.90;;;;;;5017563;28;20161;-71
2022/10/29 04:03:34;;;;;;;21.57;6.83;;;12.10;99.90;;;;;;5037197;28;20476;-71
2022/10/29 04:06:06;;;;;;;107.57;12.97;;;12.10;99.90;;;;;;4998941;28;20272;-71
2022/10/29 04:08:32;;;;;;;84.87;11.20;;;12.20;99.90;;;;;;5039672;28;20289;-71
2022/10/29 04:10:58;;;;;;;35.53;7.63;;;12.20;99.90;;;;;;5020102;28;20279;-71
2022/10/29 04:13:23;;;;;;;43.60;9.13;;;12.20;99.90;;;;;;5040170;28;20033;-71
2022/10/29 04:15:53;;;;;;;46.07;9.67;;;12.20;99.90;;;;;;5021843;28;20041;-71
2022/10/29 04:18:19;;;;;;;19.03;6.40;;;12.20;99.90;;;;;;5024922;28;20047;-71
2022/10/29 04:20:45;;;;;;;40.70;8.23;;;12.20;99.90;;;;;;5037265;28;20288;-71
2022/10/29 04:23:11;;;;;;;32.30;6.87;;;12.20;99.90;;;;;;5036303;28;20325;-71
2022/10/29 04:25:37;;;;;;;43.17;8.13;;;12.20;99.90;;;;;;5030607;28;20401;-71
2022/10/29 04:28:02;;;;;;;38.97;7.77;;;12.20;99.90;;;;;;5004736;28;20672;-71
2022/10/29 04:30:29;;;;;;;31.87;7.47;;;12.20;99.90;;;;;;5025789;28;20036;-71
2022/10/29 04:32:58;;;;;;;23.43;6.90;;;12.30;99.90;;;;;;5026172;28;20048;-71
2022/10/29 04:35:28;;;;;;;34.50;7.67;;;12.30;99.90;;;;;;5019130;28;20288;-71
2022/10/29 04:37:56;;;;;;;37.80;8.13;;;12.30;99.90;;;;;;5033392;28;20319;-71
2022/10/29 04:40:26;;;;;;;27.70;7.73;;;12.30;99.90;;;;;;5039180;28;20303;-71
2022/10/29 04:42:51;;;;;;;57.23;9.90;;;12.30;99.90;;;;;;5022321;28;20292;-71
2022/10/29 04:45:17;;;;;;;50.90;9.70;;;12.30;99.90;;;;;;5011132;28;20810;-71
2022/10/29 04:47:43;;;;;;;47.90;9.30;;;12.30;99.90;;;;;;5030441;28;20385;-71
2022/10/29 04:50:09;;;;;;;35.33;8.90;;;12.30;99.90;;;;;;5040420;28;20511;-71
2022/10/29 04:52:34;;;;;;;26.17;9.50;;;12.30;99.90;;;;;;5013919;28;20049;-71
2022/10/29 04:55:00;;;;;;;64.10;11.20;;;12.20;99.90;;;;;;5020710;28;20045;-71
2022/10/29 04:57:26;;;;;;;36.37;10.77;;;12.30;99.90;;;;;;5006208;28;20037;-71
2022/10/29 04:59:51;;;;;;;28.30;8.53;;;12.20;99.90;;;;;;5043873;28;20128;-71
2022/10/29 05:02:17;;;;;;;39.80;11.03;;;12.20;99.90;;;;;;5028796;28;20556;-71
2022/10/29 05:04:43;;;;;;;48.63;10.30;;;12.20;99.90;;;;;;5023955;28;20053;-71
2022/10/29 05:07:09;;;;;;;145.83;16.93;;;12.20;99.90;;;;;;5013769;28;20041;-71
2022/10/29 05:09:34;;;;;;;80.93;13.13;;;12.20;99.90;;;;;;5006729;28;20084;-71
2022/10/29 05:12:00;;;;;;;105.73;12.93;;;12.20;99.90;;;;;;5012928;28;20041;-71
2022/10/29 05:14:26;;;;;;;50.73;10.97;;;12.20;99.90;;;;;;5046300;28;20484;-71
2022/10/29 05:16:51;;;;;;;49.03;10.87;;;12.20;99.90;;;;;;5013638;28;20045;-71
2022/10/29 05:19:17;;;;;;;71.80;11.30;;;12.20;99.90;;;;;;5022850;28;20501;-71
2022/10/29 05:21:43;;;;;;;53.20;10.90;;;12.20;99.90;;;;;;5006916;28;20069;-71
2022/10/29 05:24:08;;;;;;;54.90;12.43;;;12.20;99.90;;;;;;5027541;28;20464;-71
2022/10/29 05:26:34;;;;;;;115.83;15.40;;;12.20;99.90;;;;;;5025945;28;20034;-71
2022/10/29 05:29:00;;;;;;;29.63;9.47;;;12.20;99.90;;;;;;5040848;28;20041;-71
2022/10/29 05:31:26;;;;;;;53.27;11.17;;;12.20;99.90;;;;;;5018068;28;20443;-71
2022/10/29 05:33:51;;;;;;;44.60;10.53;;;12.20;99.90;;;;;;5027467;28;20358;-71
2022/10/29 05:36:17;;;;;;;29.73;9.43;;;12.20;99.90;;;;;;5021747;28;20491;-71
2022/10/29 05:38:43;;;;;;;29.90;9.43;;;12.20;99.90;;;;;;5018650;28;20052;-71
2022/10/29 05:41:08;;;;;;;32.00;9.33;;;12.20;99.90;;;;;;5020680;28;20401;-71
2022/10/29 05:43:34;;;;;;;44.13;10.10;;;12.20;99.90;;;;;;5039198;28;20045;-71
2022/10/29 05:46:03;;;;;;;52.80;9.93;;;12.20;99.90;;;;;;5012831;28;20417;-71
2022/10/29 05:48:29;;;;;;;40.40;9.07;;;12.20;99.90;;;;;;5035501;28;20135;-71
2022/10/29 05:50:56;;;;;;;43.10;9.20;;;12.10;99.90;;;;;;5021968;28;20902;-71
2022/10/29 05:53:22;;;;;;;40.20;7.77;;;12.10;99.90;;;;;;5027876;28;20044;-71
2022/10/29 05:55:48;;;;;;;35.97;6.40;;;12.10;99.90;;;;;;5012453;28;20283;-71
2022/10/29 05:58:13;;;;;;;58.33;8.53;;;12.10;99.90;;;;;;5026687;28;20564;-71
2022/10/29 06:00:42;;;;;;;49.73;8.27;;;12.10;99.90;;;;;;5026920;28;20052;-71
2022/10/29 06:03:17;;;;;;;31.07;6.73;;;12.10;99.90;;;;;;5032452;28;20036;-71
2022/10/29 06:05:43;;;;;;;35.90;6.93;;;12.10;99.90;;;;;;5045193;28;20337;-71
2022/10/29 06:08:09;;;;;;;86.87;9.70;;;12.10;99.90;;;;;;5003055;28;20037;-71
2022/10/29 06:10:35;;;;;;;63.33;8.43;;;12.10;99.90;;;;;;5193605;23;20401;-68
2022/10/29 06:13:01;;;;;;;29.97;7.83;;;12.10;99.90;;;;;;4994875;28;20381;-70
2022/10/29 06:15:27;;;;;;;37.83;7.93;;;12.10;99.90;;;;;;4996765;28;20280;-70
2022/10/29 06:17:52;;;;;;;27.37;7.00;;;12.10;99.90;;;;;;4989537;28;20451;-70
2022/10/29 06:20:20;;;;;;;97.83;10.17;;;12.10;99.90;;;;;;4987543;28;20042;-70
2022/10/29 06:22:45;;;;;;;34.13;7.67;;;12.10;99.90;;;;;;4991434;28;20050;-71
2022/10/29 06:25:11;;;;;;;27.43;8.30;;;12.10;99.90;;;;;;5007084;28;20285;-70
2022/10/29 06:27:37;;;;;;;117.50;12.50;;;12.10;99.90;;;;;;4999773;28;20065;-71
2022/10/29 06:30:04;;;;;;;109.77;12.53;;;12.10;99.90;;;;;;4987617;28;20049;-71
2022/10/29 06:32:30;;;;;;;40.40;8.67;;;12.10;99.90;;;;;;4996217;28;20128;-70
2022/10/29 06:34:56;;;;;;;30.13;8.07;;;12.20;99.90;;;;;;5005634;28;20612;-70
2022/10/29 06:37:21;;;;;;;35.43;8.93;;;12.20;99.90;;;;;;4966675;28;20458;-71
2022/10/29 06:39:47;;;;;;;32.67;8.43;;;12.20;99.90;;;;;;4990064;28;20496;-70
2022/10/29 06:42:13;;;;;;;32.17;8.87;;;12.20;99.90;;;;;;5011122;28;20480;-70
2022/10/29 06:44:39;;;;;;;58.63;9.07;;;12.30;99.90;;;;;;4986275;28;20068;-70
2022/10/29 06:47:04;;;;;;;25.83;7.80;;;12.30;99.90;;;;;;5004693;28;20049;-71
2022/10/29 06:49:30;;;;;;;25.40;8.57;;;12.30;99.90;;;;;;4987676;28;20045;-71
2022/10/29 06:51:56;;;;;;;66.97;10.03;;;12.40;99.90;;;;;;4967589;28;20108;-71
2022/10/29 06:54:21;;;;;;;28.17;8.00;;;12.40;99.90;;;;;;4995931;28;20041;-71
2022/10/29 06:56:47;;;;;;;128.87;13.07;;;12.40;99.90;;;;;;4981747;28;20129;-71
2022/10/29 06:59:13;;;;;;;83.97;11.37;;;12.40;99.90;;;;;;4977432;28;20515;-71
2022/10/29 07:01:39;;;;;;;64.77;10.37;;;12.50;99.90;;;;;;4972724;28;20480;-70
2022/10/29 07:04:04;;;;;;;45.17;9.90;;;12.50;99.90;;;;;;4992112;28;20034;-70
2022/10/29 07:06:32;;;;;;;29.43;8.87;;;12.50;99.90;;;;;;4989441;28;20042;-70
2022/10/29 07:08:58;;;;;;;63.87;11.43;;;12.50;99.90;;;;;;4987384;28;20061;-71
2022/10/29 07:11:24;;;;;;;35.50;9.97;;;12.60;99.90;;;;;;4988120;28;20788;-71
2022/10/29 07:13:49;;;;;;;39.53;10.87;;;12.60;99.90;;;;;;4981239;28;20042;-70
2022/10/29 07:16:15;;;;;;;132.07;16.00;;;12.60;99.90;;;;;;4965980;28;20057;-71
2022/10/29 07:18:41;;;;;;;67.60;12.40;;;12.70;99.90;;;;;;5002738;28;20049;-71
2022/10/29 07:21:06;;;;;;;51.07;10.57;;;12.70;99.90;;;;;;4975323;28;20510;-71
2022/10/29 07:23:32;;;;;;;49.97;10.87;;;12.70;99.90;;;;;;4980503;28;20107;-71
2022/10/29 07:25:58;;;;;;;112.17;14.33;;;12.80;99.90;;;;;;4958566;28;20307;-70
2022/10/29 07:28:24;;;;;;;46.13;11.10;;;12.80;99.90;;;;;;4987093;28;20092;-70
2022/10/29 07:30:57;;;;;;;62.33;14.80;;;12.80;99.90;;;;;;4984884;28;20112;-71
2022/10/29 07:33:23;;;;;;;58.80;15.27;;;12.90;99.90;;;;;;5004075;28;20304;-71
2022/10/29 07:35:49;;;;;;;97.20;19.37;;;12.90;99.90;;;;;;4966131;28;20800;-71
2022/10/29 07:38:14;;;;;;;64.27;16.93;;;12.90;99.90;;;;;;4974995;28;20030;-71
2022/10/29 07:40:48;;;;;;;79.50;20.13;;;12.90;99.90;;;;;;4982403;28;20096;-71
2022/10/29 07:43:14;;;;;;;76.03;19.37;;;12.90;99.90;;;;;;5007227;28;20038;-71
2022/10/29 07:45:43;;;;;;;82.10;22.43;;;12.90;99.90;;;;;;4983322;28;20290;-71
2022/10/29 07:48:09;;;;;;;63.23;19.73;;;13.00;99.90;;;;;;4997819;28;20746;-71
2022/10/29 07:50:36;;;;;;;74.50;20.07;;;13.00;99.90;;;;;;4982571;28;20321;-70
2022/10/29 07:53:04;;;;;;;92.63;20.83;;;13.00;99.90;;;;;;5002907;28;20633;-71
2022/10/29 07:55:30;;;;;;;85.87;22.20;;;13.00;99.90;;;;;;4984141;28;20288;-70
2022/10/29 07:57:57;;;;;;;79.80;22.90;;;13.10;99.90;;;;;;4987014;28;20378;-71
2022/10/29 08:00:24;;;;;;;64.53;20.57;;;13.10;99.90;;;;;;4977811;28;20436;-71
2022/10/29 08:02:53;;;;;;;63.70;21.60;;;13.10;99.90;;;;;;4987532;28;20308;-71
2022/10/29 08:05:19;;;;;;;49.77;17.77;;;13.10;99.90;;;;;;4982294;28;20289;-71
2022/10/29 08:07:45;;;;;;;56.83;20.77;;;13.20;99.90;;;;;;4995696;28;20281;-71
2022/10/29 08:10:11;;;;;;;60.17;21.37;;;13.20;99.90;;;;;;5000958;28;20351;-71
2022/10/29 08:12:37;;;;;;;49.77;20.83;;;13.20;99.90;;;;;;5007011;28;20524;-71
2022/10/29 08:15:04;;;;;;;60.43;23.17;;;13.20;99.90;;;;;;5000991;28;20297;-71
2022/10/29 08:17:31;;;;;;;49.53;20.33;;;13.20;99.90;;;;;;5004473;28;20447;-71
2022/10/29 08:19:57;;;;;;;46.47;19.90;;;13.30;99.90;;;;;;4989326;28;20311;-71
2022/10/29 08:22:23;;;;;;;47.53;19.47;;;13.40;99.90;;;;;;4981701;28;20288;-71
2022/10/29 08:24:49;;;;;;;46.23;19.03;;;13.50;99.90;;;;;;4984535;28;20041;-71
2022/10/29 08:27:14;;;;;;;44.13;18.63;;;13.60;99.90;;;;;;4968456;28;20808;-71
2022/10/29 08:29:40;;;;;;;42.37;17.43;;;13.60;99.90;;;;;;5004080;28;20050;-71
2022/10/29 08:32:06;;;;;;;34.43;15.50;;;13.60;99.90;;;;;;5002460;28;20041;-71
2022/10/29 08:34:32;;;;;;;28.73;15.27;;;13.70;99.90;;;;;;4979926;28;20417;-71
2022/10/29 08:36:57;;;;;;;39.00;15.83;;;13.80;99.90;;;;;;4998388;28;20254;-71
2022/10/29 08:39:23;;;;;;;33.40;15.27;;;13.80;99.90;;;;;;4967638;28;20081;-71
2022/10/29 08:42:10;;;;;;;34.50;16.07;;;13.90;99.90;;;;;;4970927;28;20604;-70
2022/10/29 08:44:50;;;;;;;30.17;14.40;;;14.00;99.90;;;;;;5007240;28;20096;-71
2022/10/29 08:47:19;;;;;;;32.20;14.90;;;14.00;99.90;;;;;;4983290;28;20653;-71
2022/10/29 08:49:50;;;;;;;32.57;15.17;;;14.10;99.90;;;;;;4992355;28;20292;-70
2022/10/29 08:52:24;;;;;;;36.67;14.10;;;14.20;99.90;;;;;;5010256;28;20838;-71
2022/10/29 08:55:07;;;;;;;39.33;15.20;;;14.30;99.90;;;;;;4988106;28;20289;-71
2022/10/29 08:57:39;;;;;;;38.17;14.30;;;14.40;99.90;;;;;;5004738;28;20284;-71
2022/10/29 09:00:12;;;;;;;30.67;13.67;;;14.40;99.90;;;;;;4985760;28;20348;-71
2022/10/29 09:02:39;;;;;;;25.43;13.70;;;14.50;99.90;;;;;;4984683;28;20291;-71
2022/10/29 09:05:10;;;;;;;25.43;14.33;;;14.50;99.90;;;;;;4975101;28;20315;-71
2022/10/29 09:07:54;;;;;;;33.33;13.20;;;14.50;99.90;;;;;;4992649;28;20350;-71
2022/10/29 09:10:42;;;;;;;25.87;12.53;;;14.50;99.90;;;;;;4988858;28;20300;-71
2022/10/29 09:13:31;;;;;;;30.03;13.20;;;14.60;99.90;;;;;;5012014;28;20650;-71
2022/10/29 09:16:03;;;;;;;33.57;14.17;;;14.60;99.90;;;;;;4990354;28;20308;-71
2022/10/29 09:18:39;;;;;;;27.20;13.17;;;14.60;99.90;;;;;;5009760;28;20277;-71
2022/10/29 09:21:37;;;;;;;24.77;12.53;;;14.60;99.90;;;;;;5002436;28;20286;-70
2022/10/29 09:24:10;;;;;;;32.37;12.90;;;14.60;99.90;;;;;;5190246;23;20853;-70
2022/10/29 09:27:11;;;;;;;29.20;13.37;;;14.60;99.90;;;;;;5012877;28;20848;-70
2022/10/29 09:30:03;;;;;;;31.10;14.57;;;14.70;99.90;;;;;;4940454;28;20381;-70
2022/10/29 09:32:55;;;;;;;31.50;14.40;;;14.90;99.90;;;;;;4990354;28;20293;-70
2022/10/29 09:35:21;;;;;;;28.40;14.53;;;15.00;99.90;;;;;;4991967;28;20288;-71
2022/10/29 09:38:07;;;;;;;32.57;14.27;;;15.20;99.90;;;;;;4995006;28;20289;-71
2022/10/29 09:40:39;;;;;;;31.17;13.70;;;15.30;99.90;;;;;;5014721;28;20311;-71
2022/10/29 09:43:12;;;;;;;29.87;13.47;;;15.50;99.90;;;;;;5006771;28;20695;-71
2022/10/29 09:45:45;;;;;;;30.67;15.00;;;15.50;99.90;;;;;;4991717;28;20369;-71
2022/10/29 09:48:21;;;;;;;28.33;12.77;;;15.70;99.90;;;;;;4993371;28;20631;-70
2022/10/29 09:51:34;;;;;;;26.60;12.60;;;15.80;99.90;;;;;;5009154;28;20711;-71
2022/10/29 09:54:00;;;;;;;27.13;12.83;;;15.80;99.90;;;;;;4969387;28;20359;-71
2022/10/29 09:56:26;;;;;;;28.97;13.53;;;15.90;99.90;;;;;;4991453;28;20304;-71
2022/10/29 09:58:58;;;;;;;30.53;14.33;;;16.00;99.90;;;;;;4993423;28;20313;-71
2022/10/29 10:01:23;;;;;;;28.10;14.10;;;16.00;99.90;;;;;;5016625;28;20045;-71
2022/10/29 10:03:57;;;;;;;30.73;14.57;;;16.00;99.90;;;;;;4978363;28;20291;-71
2022/10/29 10:06:22;;;;;;;30.90;14.77;;;16.10;99.90;;;;;;4993391;28;20046;-71
2022/10/29 10:09:05;;;;;;;25.70;13.33;;;16.20;99.90;;;;;;4993132;28;20324;-71
2022/10/29 10:11:39;;;;;;;23.93;12.43;;;16.20;99.90;;;;;;4994205;28;20052;-71
2022/10/29 10:14:23;;;;;;;21.10;13.10;;;16.30;99.90;;;;;;5012070;28;20750;-71
2022/10/29 10:16:59;;;;;;;26.07;13.53;;;16.40;99.90;;;;;;4975342;28;20073;-71
2022/10/29 10:19:28;;;;;;;25.97;13.57;;;16.50;99.90;;;;;;4993062;28;20362;-70
2022/10/29 10:22:04;;;;;;;25.57;13.17;;;16.60;99.90;;;;;;4994311;28;20299;-70
2022/10/29 10:24:36;;;;;;;23.87;13.10;;;16.70;99.90;;;;;;5015934;28;20664;-70
2022/10/29 10:27:17;;;;;;;22.83;13.53;;;16.90;99.90;;;;;;5026006;28;20042;-70
2022/10/29 10:29:43;;;;;;;27.67;13.03;;;17.00;99.90;;;;;;5025385;28;20299;-70
2022/10/29 10:32:13;;;;;;;22.73;14.27;;;17.10;99.90;;;;;;5006325;28;20060;-71
2022/10/29 10:34:39;;;;;;;24.37;12.70;;;17.20;99.90;;;;;;5008326;28;20619;-72
2022/10/29 10:37:13;;;;;;;22.90;13.90;;;17.20;99.90;;;;;;5011293;28;20041;-71
2022/10/29 10:39:43;;;;;;;26.85;14.88;;;17.30;99.90;;;;;;5007990;28;20494;-71
2022/10/29 10:42:25;;;;;;;24.97;13.60;;;17.40;99.90;;;;;;4994129;28;20046;-72
2022/10/29 10:45:21;;;;;;;22.40;13.47;;;17.50;99.90;;;;;;5011671;28;20120;-72
2022/10/29 10:47:57;;;;;;;26.67;12.97;;;17.60;99.90;;;;;;4994950;28;20053;-72
2022/10/29 10:50:34;;;;;;;27.33;13.30;;;17.60;99.90;;;;;;5010295;28;20053;-71
2022/10/29 10:53:22;;;;;;;27.00;13.27;;;17.70;99.90;;;;;;4967748;28;20057;-71
2022/10/29 10:55:57;;;;;;;23.42;13.55;;;17.80;99.90;;;;;;4992718;28;20470;-72
2022/10/29 10:58:41;;;;;;;27.10;14.33;;;17.80;99.90;;;;;;4977222;28;20112;-71
2022/10/29 11:01:15;;;;;;;25.13;13.67;;;17.80;99.90;;;;;;5007034;28;20049;-72
2022/10/29 11:04:03;;;;;;;26.27;13.87;;;17.80;99.90;;;;;;5007601;28;20061;-71
2022/10/29 11:06:35;;;;;;;23.47;13.47;;;17.90;99.90;;;;;;5025597;28;20049;-71
2022/10/29 11:09:11;;;;;;;27.37;13.40;;;18.00;99.90;;;;;;5008303;28;20060;-72
2022/10/29 11:11:40;;;;;;;;;;;18.00;99.90;;;;;;5008645;28;20052;-71
2022/10/29 11:14:26;;;;;;;25.87;13.73;;;18.00;99.90;;;;;;5020352;28;19925;-72
2022/10/29 11:16:56;;;;;;;23.80;12.90;;;18.00;99.90;;;;;;5020038;28;20104;-72
2022/10/29 11:19:40;;;;;;;26.73;13.37;;;18.10;99.90;;;;;;5006825;28;20054;-72
2022/10/29 11:22:25;;;;;;;24.13;13.20;;;18.20;99.90;;;;;;5007727;28;20436;-72
2022/10/29 11:25:04;;;;;;;26.47;14.07;;;18.20;99.90;;;;;;5007225;28;20100;-72
2022/10/29 11:28:00;;;;;;;24.70;12.73;;;18.30;99.90;;;;;;4989796;28;20893;-71
2022/10/29 11:30:28;;;;;;;22.77;13.63;;;18.30;99.90;;;;;;4976165;28;20137;-71
2022/10/29 11:33:16;;;;;;;22.53;12.97;;;18.30;99.90;;;;;;5007515;28;20393;-71
2022/10/29 11:35:52;;;;;;;22.33;12.43;;;18.40;99.90;;;;;;4985429;28;20064;-71
2022/10/29 11:38:29;;;;;;;25.43;12.90;;;18.40;99.90;;;;;;5016993;28;20099;-72
2022/10/29 11:41:03;;;;;;;26.63;13.60;;;18.40;99.90;;;;;;4991413;28;20046;-71
2022/10/29 11:43:30;;;;;;;22.70;12.53;;;18.40;99.90;;;;;;5007673;28;20053;-68
2022/10/29 11:46:11;;;;;;;26.73;12.30;;;18.30;99.90;;;;;;5012983;28;20404;-68
2022/10/29 11:49:06;;;;;;;31.77;13.13;;;18.30;99.90;;;;;;5025887;28;20057;-69
2022/10/29 11:51:55;;;;;;;25.43;13.00;;;18.30;99.90;;;;;;5012721;28;20042;-69
2022/10/29 11:54:55;;;;;;;23.37;12.53;;;18.40;99.90;;;;;;5013528;28;20056;-69
2022/10/29 11:57:50;;;;;;;21.60;12.63;;;18.40;99.90;;;;;;5013163;28;20042;-69
2022/10/29 12:00:19;;;;;;;25.83;12.37;;;18.40;99.90;;;;;;5017801;28;20042;-69
2022/10/29 12:02:55;;;;;;;21.77;11.83;;;18.40;99.90;;;;;;5015649;28;20038;-68
2022/10/29 12:06:03;;;;;;;26.87;11.50;;;18.50;99.90;;;;;;5022197;28;20052;-71
2022/10/29 12:08:47;;;;;;;20.87;10.93;;;18.60;99.90;;;;;;5000202;28;20046;-71
2022/10/29 12:11:25;;;;;;;21.97;11.53;;;18.80;99.90;;;;;;5014148;28;20398;-71
2022/10/29 12:14:10;;;;;;;23.67;10.70;;;19.00;99.90;;;;;;5010763;28;20100;-71
2022/10/29 12:16:45;;;;;;;16.38;9.93;;;19.30;99.90;;;;;;5007894;28;20045;-71
2022/10/29 12:19:10;;;;;;;22.95;10.80;;;19.40;99.90;;;;;;5006964;28;20343;-71
2022/10/29 12:21:54;;;;;;;20.67;10.77;;;19.50;99.90;;;;;;5007871;28;20049;-71
2022/10/29 12:24:32;;;;;;;19.67;10.60;;;19.50;99.90;;;;;;4992303;28;20595;-71
2022/10/29 12:27:17;;;;;;;18.73;10.57;;;19.40;99.90;;;;;;4992300;28;20085;-71
2022/10/29 12:29:58;;;;;;;;;;;19.30;99.90;;;;;;4993431;28;20270;-71
2022/10/29 12:32:32;;;;;;;21.10;10.60;;;19.20;99.90;;;;;;5011575;28;19958;-71
2022/10/29 12:35:09;;;;;;;23.67;10.80;;;19.10;99.90;;;;;;4999100;28;20045;-71
2022/10/29 12:37:58;;;;;;;20.47;10.17;;;19.10;99.90;;;;;;5190503;23;20045;-69
2022/10/29 12:40:31;;;;;;;16.70;10.63;;;19.00;99.90;;;;;;5047899;28;20049;-69
2022/10/29 12:43:04;;;;;;;17.53;9.57;;;19.00;99.90;;;;;;5046370;28;20047;-69
2022/10/29 12:46:04;;;;;;;21.63;10.07;;;19.10;99.90;;;;;;5031502;28;20036;-72
2022/10/29 12:48:45;;;;;;;20.53;9.70;;;19.20;99.90;;;;;;5019195;28;20040;-70
2022/10/29 12:51:23;;;;;;;19.33;9.53;;;19.30;99.90;;;;;;5043058;28;20083;-70